Portada
METAR-TAF:

METAR-TAF

Aeropuertos :

Base Aérea de Aviano

Aviano, Italia

latitud: 46-02N, longitud: 012-36E, altitud: 128 m

Observación

El informe se hizo hace 32 minutos, a las 18:55 UTC
Viento 6 kt del noreste
Temperatura 10°C
Humedad 87%
Presión 1018 hPa
Visibilidad: 3000 m
Nubes dispersas a una altura de 6000 ft

METAR: LIPA 051855Z 04006KT 3000 SCT060 10/08 Q1018 RMK SCT VIS MIN 3000 WIND THR05 /////KT WIND THR23 /////KT A3007 YLO

Hora: 20:27 (19:27 UTC)

Pronóstico

El informe se hizo hace 2 horas y 27 minutos, a las 17:00 UTC
Pronóstico válido del 05 a las 18 UTC al 06 a las 03 UTC
Viento 5 kt del este-noreste
Visibilidad: 2000 m
Escasas nubes a una altura de 1500 ft
Cielo nuboso a una altura de 4000 ft
neblina
Temporalmente
del 05 a las 21 UTC al 06 a las 03 UTC
Visibilidad: 3000 m
Cielo nuboso a una altura de 1500 ft
lluvia, neblina

TAF: LIPA 051700Z 0518/0603 06005KT 2000 BR FEW015 BKN040 TEMPO 0521/0603 3000 RA BR BKN015

Observaciones y pronósticos meteorológicos de más de 4000 aeropuertos (mensajes METAR y TAF).

Los puntos amarillos y rojos representan las estaciones disponibles.

Ponga el ratón en el punto deseado para ver el nombre de la estación.

Haga clic para ver las observaciones y los pronósticos meteorológicos.

Para cambiar el mapa : haga clic en los botones verdes con una cruz de color negro para hacer un zoom, en el botón verde con un guión para alejar o en las flechas verdes para mapas adyacentes.


METAR-TAF: